Saint Charles, South Dakota
Current Conditions -  °F | °C
As of 8:53 PM on Friday 24 Oct 2014 (Local Time) from KICR Reporting Station
Clear Clear  
Wind Chill: 57°   Ceiling: Unl
Heat Index: 57°   Visibility: 10mi
Dew Point: 33°   Wind: 3mph
Humidity: 40%   Direction: 210°SSW
Pressure: 30.01"   Gusts: NA
Location:  43.09°N, 99.1°W
Report Text: KICR 250153Z AUTO 21003KT 10SM CLR 14/01 A3001 RMK AO2 SLPNO T01390006 $
Loading
Personal Weather Stations






























Interactive Weather Map New forecast layout! Learn more

10-Day Weather Forecast

Advertisements
Track Severe Weather on mobile